Terminal Aerodrome Forecast
Issued by NWS

Home | Current Version | Previous Version | Text Only | Print | Product List | Glossary On
Versions: 1 2 3 4 5 6 7 8 9 10 11 12 13 14 15 16 17 18 19 20 21 22 23 24
000
FTUS43 KMPX 270500
TAFRWF
TAF
KRWF 270520Z 2706/2806 32009KT P6SM SKC
     FM271500 VRB03KT P6SM SCT200
     FM272000 14006KT P6SM BKN150
     FM280200 14010KT P6SM OVC060
     FM280500 15011KT 5SM -SN BKN020 OVC040=

USA.gov is the U.S. government's official web portal to all federal, state and local government web resources and services.